sensor_id;sensor_type;location;lat;lon;timestamp;P1;durP1;ratioP1;P2;durP2;ratioP2
67500;SDS011;54349;52.528;19.760;2023-04-01T00:01:22;24.80;;;10.60;;
67500;SDS011;54349;52.528;19.760;2023-04-01T00:03:51;24.30;;;11.10;;
67500;SDS011;54349;52.528;19.760;2023-04-01T00:06:23;23.80;;;9.70;;
67500;SDS011;54349;52.528;19.760;2023-04-01T00:08:54;20.60;;;9.80;;
67500;SDS011;54349;52.528;19.760;2023-04-01T00:11:22;22.90;;;10.60;;
67500;SDS011;54349;52.528;19.760;2023-04-01T00:13:50;20.60;;;9.30;;
67500;SDS011;54349;52.528;19.760;2023-04-01T00:16:19;21.00;;;9.40;;
67500;SDS011;54349;52.528;19.760;2023-04-01T00:18:50;20.00;;;8.70;;
67500;SDS011;54349;52.528;19.760;2023-04-01T00:21:20;19.70;;;8.90;;
67500;SDS011;54349;52.528;19.760;2023-04-01T00:23:50;18.00;;;8.90;;
67500;SDS011;54349;52.528;19.760;2023-04-01T00:26:19;16.50;;;8.30;;
67500;SDS011;54349;52.528;19.760;2023-04-01T00:28:50;18.40;;;8.40;;
67500;SDS011;54349;52.528;19.760;2023-04-01T00:31:19;19.00;;;8.20;;
67500;SDS011;54349;52.528;19.760;2023-04-01T00:33:48;17.70;;;8.00;;
67500;SDS011;54349;52.528;19.760;2023-04-01T00:36:19;16.90;;;8.00;;
67500;SDS011;54349;52.528;19.760;2023-04-01T00:38:50;19.90;;;8.40;;
67500;SDS011;54349;52.528;19.760;2023-04-01T00:41:20;15.40;;;7.60;;
67500;SDS011;54349;52.528;19.760;2023-04-01T00:43:50;14.90;;;7.20;;
67500;SDS011;54349;52.528;19.760;2023-04-01T00:46:20;15.20;;;7.00;;
67500;SDS011;54349;52.528;19.760;2023-04-01T00:48:51;15.50;;;7.00;;
67500;SDS011;54349;52.528;19.760;2023-04-01T00:51:27;14.60;;;7.00;;
67500;SDS011;54349;52.528;19.760;2023-04-01T00:53:59;15.50;;;7.10;;
67500;SDS011;54349;52.528;19.760;2023-04-01T00:56:35;13.40;;;6.40;;
67500;SDS011;54349;52.528;19.760;2023-04-01T00:59:13;14.00;;;6.70;;
67500;SDS011;54349;52.528;19.760;2023-04-01T01:01:43;12.90;;;6.30;;
67500;SDS011;54349;52.528;19.760;2023-04-01T01:07:23;12.20;;;5.50;;
67500;SDS011;54349;52.528;19.760;2023-04-01T01:10:02;12.40;;;6.10;;
67500;SDS011;54349;52.528;19.760;2023-04-01T01:12:46;11.40;;;5.60;;
67500;SDS011;54349;52.528;19.760;2023-04-01T01:15:29;9.90;;;5.00;;
67500;SDS011;54349;52.528;19.760;2023-04-01T01:21:02;12.70;;;5.90;;
67500;SDS011;54349;52.528;19.760;2023-04-01T01:24:11;13.10;;;5.40;;
67500;SDS011;54349;52.528;19.760;2023-04-01T01:27:03;11.40;;;5.10;;
67500;SDS011;54349;52.528;19.760;2023-04-01T01:29:48;9.30;;;4.90;;
67500;SDS011;54349;52.528;19.760;2023-04-01T01:35:38;10.70;;;4.80;;
67500;SDS011;54349;52.528;19.760;2023-04-01T01:38:14;10.50;;;5.00;;
67500;SDS011;54349;52.528;19.760;2023-04-01T01:40:55;8.90;;;4.80;;
67500;SDS011;54349;52.528;19.760;2023-04-01T01:43:30;10.40;;;4.70;;
67500;SDS011;54349;52.528;19.760;2023-04-01T01:46:07;10.00;;;4.50;;
67500;SDS011;54349;52.528;19.760;2023-04-01T01:48:42;8.50;;;4.60;;
67500;SDS011;54349;52.528;19.760;2023-04-01T01:51:12;8.20;;;4.40;;
67500;SDS011;54349;52.528;19.760;2023-04-01T01:53:41;7.60;;;4.10;;
67500;SDS011;54349;52.528;19.760;2023-04-01T01:56:11;8.60;;;4.40;;
67500;SDS011;54349;52.528;19.760;2023-04-01T01:58:46;7.70;;;4.10;;
67500;SDS011;54349;52.528;19.760;2023-04-01T02:01:24;9.70;;;4.40;;
67500;SDS011;54349;52.528;19.760;2023-04-01T02:03:58;8.30;;;4.00;;
67500;SDS011;54349;52.528;19.760;2023-04-01T02:06:30;7.50;;;4.10;;
67500;SDS011;54349;52.528;19.760;2023-04-01T02:09:05;8.40;;;3.90;;
67500;SDS011;54349;52.528;19.760;2023-04-01T02:11:46;7.80;;;3.90;;
67500;SDS011;54349;52.528;19.760;2023-04-01T02:14:39;8.00;;;3.80;;
67500;SDS011;54349;52.528;19.760;2023-04-01T02:17:30;6.90;;;3.60;;
67500;SDS011;54349;52.528;19.760;2023-04-01T02:20:16;6.50;;;3.60;;
67500;SDS011;54349;52.528;19.760;2023-04-01T02:22:54;7.80;;;3.70;;
67500;SDS011;54349;52.528;19.760;2023-04-01T02:25:27;7.40;;;3.60;;
67500;SDS011;54349;52.528;19.760;2023-04-01T02:27:58;5.90;;;3.50;;
67500;SDS011;54349;52.528;19.760;2023-04-01T02:30:29;7.40;;;4.00;;
67500;SDS011;54349;52.528;19.760;2023-04-01T02:33:03;5.90;;;3.50;;
67500;SDS011;54349;52.528;19.760;2023-04-01T02:35:37;6.70;;;3.90;;
67500;SDS011;54349;52.528;19.760;2023-04-01T02:38:08;6.80;;;3.60;;
67500;SDS011;54349;52.528;19.760;2023-04-01T02:40:46;6.20;;;3.20;;
67500;SDS011;54349;52.528;19.760;2023-04-01T02:43:19;6.00;;;3.50;;
67500;SDS011;54349;52.528;19.760;2023-04-01T02:45:48;5.60;;;3.20;;
67500;SDS011;54349;52.528;19.760;2023-04-01T02:48:18;6.50;;;3.30;;
67500;SDS011;54349;52.528;19.760;2023-04-01T02:50:46;7.70;;;3.30;;
67500;SDS011;54349;52.528;19.760;2023-04-01T02:53:16;6.40;;;3.40;;
67500;SDS011;54349;52.528;19.760;2023-04-01T02:55:45;6.30;;;3.20;;
67500;SDS011;54349;52.528;19.760;2023-04-01T02:58:13;7.10;;;3.50;;
67500;SDS011;54349;52.528;19.760;2023-04-01T03:00:41;5.80;;;3.40;;
67500;SDS011;54349;52.528;19.760;2023-04-01T03:03:11;5.70;;;3.30;;
67500;SDS011;54349;52.528;19.760;2023-04-01T03:05:41;5.90;;;3.20;;
67500;SDS011;54349;52.528;19.760;2023-04-01T03:08:11;7.10;;;3.30;;
67500;SDS011;54349;52.528;19.760;2023-04-01T03:10:39;5.50;;;3.20;;
67500;SDS011;54349;52.528;19.760;2023-04-01T03:13:08;5.00;;;3.00;;
67500;SDS011;54349;52.528;19.760;2023-04-01T03:15:36;6.10;;;3.20;;
67500;SDS011;54349;52.528;19.760;2023-04-01T03:18:05;6.00;;;3.10;;
67500;SDS011;54349;52.528;19.760;2023-04-01T03:20:33;6.00;;;3.20;;
67500;SDS011;54349;52.528;19.760;2023-04-01T03:23:02;5.50;;;3.10;;
67500;SDS011;54349;52.528;19.760;2023-04-01T03:25:31;5.70;;;3.40;;
67500;SDS011;54349;52.528;19.760;2023-04-01T03:28:00;5.60;;;3.10;;
67500;SDS011;54349;52.528;19.760;2023-04-01T03:30:29;5.10;;;2.90;;
67500;SDS011;54349;52.528;19.760;2023-04-01T03:32:59;5.70;;;3.30;;
67500;SDS011;54349;52.528;19.760;2023-04-01T03:35:31;5.20;;;3.00;;
67500;SDS011;54349;52.528;19.760;2023-04-01T03:38:00;5.50;;;2.90;;
67500;SDS011;54349;52.528;19.760;2023-04-01T03:40:28;5.20;;;2.70;;
67500;SDS011;54349;52.528;19.760;2023-04-01T03:42:57;5.00;;;3.00;;
67500;SDS011;54349;52.528;19.760;2023-04-01T03:45:25;5.90;;;3.00;;
67500;SDS011;54349;52.528;19.760;2023-04-01T03:47:53;5.00;;;2.80;;
67500;SDS011;54349;52.528;19.760;2023-04-01T03:50:22;4.70;;;2.60;;
67500;SDS011;54349;52.528;19.760;2023-04-01T03:52:50;5.30;;;3.00;;
67500;SDS011;54349;52.528;19.760;2023-04-01T03:55:19;5.60;;;2.90;;
67500;SDS011;54349;52.528;19.760;2023-04-01T03:57:48;4.60;;;2.70;;
67500;SDS011;54349;52.528;19.760;2023-04-01T04:00:17;4.90;;;2.50;;
67500;SDS011;54349;52.528;19.760;2023-04-01T04:02:47;5.80;;;3.00;;
67500;SDS011;54349;52.528;19.760;2023-04-01T04:05:20;4.90;;;2.70;;
67500;SDS011;54349;52.528;19.760;2023-04-01T04:07:48;5.20;;;2.80;;
67500;SDS011;54349;52.528;19.760;2023-04-01T04:10:18;4.70;;;2.60;;
67500;SDS011;54349;52.528;19.760;2023-04-01T04:12:49;4.20;;;2.50;;
67500;SDS011;54349;52.528;19.760;2023-04-01T04:15:18;4.60;;;2.70;;
67500;SDS011;54349;52.528;19.760;2023-04-01T04:17:47;4.90;;;2.70;;
67500;SDS011;54349;52.528;19.760;2023-04-01T04:20:15;5.30;;;2.70;;
67500;SDS011;54349;52.528;19.760;2023-04-01T04:22:44;4.40;;;2.50;;
67500;SDS011;54349;52.528;19.760;2023-04-01T04:25:16;4.50;;;2.60;;
67500;SDS011;54349;52.528;19.760;2023-04-01T04:27:49;4.20;;;2.50;;
67500;SDS011;54349;52.528;19.760;2023-04-01T04:30:20;4.10;;;2.50;;
67500;SDS011;54349;52.528;19.760;2023-04-01T04:32:50;3.90;;;2.40;;
67500;SDS011;54349;52.528;19.760;2023-04-01T04:35:19;4.30;;;2.50;;
67500;SDS011;54349;52.528;19.760;2023-04-01T04:37:48;3.90;;;2.30;;
67500;SDS011;54349;52.528;19.760;2023-04-01T04:40:16;3.90;;;2.30;;
67500;SDS011;54349;52.528;19.760;2023-04-01T04:42:45;4.20;;;2.30;;
67500;SDS011;54349;52.528;19.760;2023-04-01T04:45:15;3.50;;;2.10;;
67500;SDS011;54349;52.528;19.760;2023-04-01T04:47:50;3.20;;;2.10;;
67500;SDS011;54349;52.528;19.760;2023-04-01T04:50:19;4.00;;;2.20;;
67500;SDS011;54349;52.528;19.760;2023-04-01T04:52:48;4.00;;;2.40;;
67500;SDS011;54349;52.528;19.760;2023-04-01T04:55:17;3.50;;;2.10;;
67500;SDS011;54349;52.528;19.760;2023-04-01T04:57:54;4.10;;;2.40;;
67500;SDS011;54349;52.528;19.760;2023-04-01T05:00:22;3.80;;;2.20;;
67500;SDS011;54349;52.528;19.760;2023-04-01T05:02:57;3.70;;;2.20;;
67500;SDS011;54349;52.528;19.760;2023-04-01T05:05:26;3.30;;;2.00;;
67500;SDS011;54349;52.528;19.760;2023-04-01T05:07:55;3.80;;;2.20;;
67500;SDS011;54349;52.528;19.760;2023-04-01T05:10:23;3.40;;;2.00;;
67500;SDS011;54349;52.528;19.760;2023-04-01T05:12:51;3.90;;;2.10;;
67500;SDS011;54349;52.528;19.760;2023-04-01T05:15:22;3.70;;;2.10;;
67500;SDS011;54349;52.528;19.760;2023-04-01T05:17:51;3.90;;;2.20;;
67500;SDS011;54349;52.528;19.760;2023-04-01T05:20:25;2.80;;;1.90;;
67500;SDS011;54349;52.528;19.760;2023-04-01T05:22:57;3.40;;;2.20;;
67500;SDS011;54349;52.528;19.760;2023-04-01T05:25:27;3.20;;;2.10;;
67500;SDS011;54349;52.528;19.760;2023-04-01T05:27:55;3.60;;;2.10;;
67500;SDS011;54349;52.528;19.760;2023-04-01T05:30:24;2.90;;;2.00;;
67500;SDS011;54349;52.528;19.760;2023-04-01T05:33:15;3.10;;;2.10;;
67500;SDS011;54349;52.528;19.760;2023-04-01T05:35:43;3.60;;;2.20;;
67500;SDS011;54349;52.528;19.760;2023-04-01T05:38:12;3.10;;;2.20;;
67500;SDS011;54349;52.528;19.760;2023-04-01T05:40:43;2.90;;;1.90;;
67500;SDS011;54349;52.528;19.760;2023-04-01T05:43:11;2.90;;;1.80;;
67500;SDS011;54349;52.528;19.760;2023-04-01T05:45:40;3.50;;;2.00;;
67500;SDS011;54349;52.528;19.760;2023-04-01T05:48:14;4.60;;;2.00;;
67500;SDS011;54349;52.528;19.760;2023-04-01T05:50:44;4.10;;;2.10;;
67500;SDS011;54349;52.528;19.760;2023-04-01T05:53:12;3.10;;;2.10;;
67500;SDS011;54349;52.528;19.760;2023-04-01T05:55:43;2.90;;;1.80;;
67500;SDS011;54349;52.528;19.760;2023-04-01T05:58:11;2.90;;;2.00;;
67500;SDS011;54349;52.528;19.760;2023-04-01T06:00:40;3.30;;;1.90;;
67500;SDS011;54349;52.528;19.760;2023-04-01T06:03:08;2.70;;;1.90;;
67500;SDS011;54349;52.528;19.760;2023-04-01T06:05:42;2.70;;;2.00;;
67500;SDS011;54349;52.528;19.760;2023-04-01T06:08:15;2.80;;;2.00;;
67500;SDS011;54349;52.528;19.760;2023-04-01T06:37:31;3.00;;;1.90;;
67500;SDS011;54349;52.528;19.760;2023-04-01T06:40:53;4.50;;;2.40;;
67500;SDS011;54349;52.528;19.760;2023-04-01T06:43:48;5.10;;;2.60;;
67500;SDS011;54349;52.528;19.760;2023-04-01T06:46:57;4.10;;;2.30;;
67500;SDS011;54349;52.528;19.760;2023-04-01T06:53:13;4.50;;;2.50;;
67500;SDS011;54349;52.528;19.760;2023-04-01T06:56:16;4.40;;;2.30;;
67500;SDS011;54349;52.528;19.760;2023-04-01T06:59:02;4.60;;;2.20;;
67500;SDS011;54349;52.528;19.760;2023-04-01T07:01:42;4.50;;;2.40;;
67500;SDS011;54349;52.528;19.760;2023-04-01T07:04:20;4.10;;;2.10;;
67500;SDS011;54349;52.528;19.760;2023-04-01T07:09:59;2.80;;;2.00;;
67500;SDS011;54349;52.528;19.760;2023-04-01T07:12:39;3.20;;;1.90;;
67500;SDS011;54349;52.528;19.760;2023-04-01T07:15:54;3.10;;;2.00;;
67500;SDS011;54349;52.528;19.760;2023-04-01T07:18:52;4.60;;;2.20;;
67500;SDS011;54349;52.528;19.760;2023-04-01T07:21:37;4.80;;;2.20;;
67500;SDS011;54349;52.528;19.760;2023-04-01T07:24:33;5.10;;;2.70;;
67500;SDS011;54349;52.528;19.760;2023-04-01T07:27:12;5.00;;;2.50;;
67500;SDS011;54349;52.528;19.760;2023-04-01T07:29:46;6.90;;;3.10;;
67500;SDS011;54349;52.528;19.760;2023-04-01T07:41:42;6.60;;;2.70;;
67500;SDS011;54349;52.528;19.760;2023-04-01T07:47:50;9.10;;;2.90;;
67500;SDS011;54349;52.528;19.760;2023-04-01T07:51:02;5.20;;;2.60;;
67500;SDS011;54349;52.528;19.760;2023-04-01T07:56:22;6.30;;;2.90;;
67500;SDS011;54349;52.528;19.760;2023-04-01T08:06:24;6.10;;;2.70;;
67500;SDS011;54349;52.528;19.760;2023-04-01T08:21:52;5.70;;;2.70;;
67500;SDS011;54349;52.528;19.760;2023-04-01T08:24:34;8.40;;;2.80;;
67500;SDS011;54349;52.528;19.760;2023-04-01T08:30:26;4.40;;;2.60;;
67500;SDS011;54349;52.528;19.760;2023-04-01T08:33:13;5.70;;;2.50;;
67500;SDS011;54349;52.528;19.760;2023-04-01T08:36:14;5.30;;;2.50;;
67500;SDS011;54349;52.528;19.760;2023-04-01T08:39:23;5.60;;;2.60;;
67500;SDS011;54349;52.528;19.760;2023-04-01T08:45:38;4.90;;;2.40;;
67500;SDS011;54349;52.528;19.760;2023-04-01T08:51:54;4.40;;;2.20;;
67500;SDS011;54349;52.528;19.760;2023-04-01T09:05:25;4.70;;;2.40;;
67500;SDS011;54349;52.528;19.760;2023-04-01T09:11:33;7.50;;;2.50;;
67500;SDS011;54349;52.528;19.760;2023-04-01T09:14:48;6.20;;;2.80;;
67500;SDS011;54349;52.528;19.760;2023-04-01T09:47:51;28.00;;;10.30;;
67500;SDS011;54349;52.528;19.760;2023-04-01T09:57:30;30.80;;;10.20;;
67500;SDS011;54349;52.528;19.760;2023-04-01T10:16:03;22.30;;;9.30;;
67500;SDS011;54349;52.528;19.760;2023-04-01T10:22:12;25.00;;;9.50;;
67500;SDS011;54349;52.528;19.760;2023-04-01T10:25:10;27.20;;;9.70;;
67500;SDS011;54349;52.528;19.760;2023-04-01T10:31:14;22.20;;;9.00;;
67500;SDS011;54349;52.528;19.760;2023-04-01T10:40:34;22.80;;;9.10;;
67500;SDS011;54349;52.528;19.760;2023-04-01T10:56:40;23.90;;;9.70;;
67500;SDS011;54349;52.528;19.760;2023-04-01T11:03:53;23.90;;;7.90;;
67500;SDS011;54349;52.528;19.760;2023-04-01T11:10:06;16.80;;;7.80;;
67500;SDS011;54349;52.528;19.760;2023-04-01T11:22:35;15.70;;;6.60;;
67500;SDS011;54349;52.528;19.760;2023-04-01T11:29:27;13.60;;;6.10;;
67500;SDS011;54349;52.528;19.760;2023-04-01T11:32:32;14.50;;;5.80;;
67500;SDS011;54349;52.528;19.760;2023-04-01T11:44:20;10.40;;;4.80;;
67500;SDS011;54349;52.528;19.760;2023-04-01T11:53:38;12.00;;;4.90;;
67500;SDS011;54349;52.528;19.760;2023-04-01T12:08:13;9.20;;;4.50;;
67500;SDS011;54349;52.528;19.760;2023-04-01T12:11:07;9.70;;;3.90;;
67500;SDS011;54349;52.528;19.760;2023-04-01T12:13:52;7.50;;;3.80;;
67500;SDS011;54349;52.528;19.760;2023-04-01T12:16:55;8.00;;;4.10;;
67500;SDS011;54349;52.528;19.760;2023-04-01T12:19:53;8.50;;;3.80;;
67500;SDS011;54349;52.528;19.760;2023-04-01T12:32:03;7.10;;;3.50;;
67500;SDS011;54349;52.528;19.760;2023-04-01T12:44:26;8.00;;;3.90;;
67500;SDS011;54349;52.528;19.760;2023-04-01T13:12:13;7.70;;;3.50;;
67500;SDS011;54349;52.528;19.760;2023-04-01T13:26:33;7.20;;;3.50;;
67500;SDS011;54349;52.528;19.760;2023-04-01T13:38:16;6.30;;;3.10;;
67500;SDS011;54349;52.528;19.760;2023-04-01T13:44:31;5.40;;;3.00;;
67500;SDS011;54349;52.528;19.760;2023-04-01T13:47:24;5.70;;;3.00;;
67500;SDS011;54349;52.528;19.760;2023-04-01T13:50:07;5.00;;;2.80;;
67500;SDS011;54349;52.528;19.760;2023-04-01T14:01:25;5.40;;;2.90;;
67500;SDS011;54349;52.528;19.760;2023-04-01T14:13:16;6.30;;;3.20;;
67500;SDS011;54349;52.528;19.760;2023-04-01T14:40:53;4.00;;;2.50;;
67500;SDS011;54349;52.528;19.760;2023-04-01T14:49:39;4.30;;;2.60;;
67500;SDS011;54349;52.528;19.760;2023-04-01T14:55:46;5.00;;;3.00;;
67500;SDS011;54349;52.528;19.760;2023-04-01T14:58:18;4.90;;;3.00;;
67500;SDS011;54349;52.528;19.760;2023-04-01T15:07:35;4.90;;;3.00;;
67500;SDS011;54349;52.528;19.760;2023-04-01T15:13:15;5.70;;;3.30;;
67500;SDS011;54349;52.528;19.760;2023-04-01T15:28:10;5.00;;;2.80;;
67500;SDS011;54349;52.528;19.760;2023-04-01T15:31:19;4.80;;;3.00;;
67500;SDS011;54349;52.528;19.760;2023-04-01T15:40:20;5.10;;;3.10;;
67500;SDS011;54349;52.528;19.760;2023-04-01T15:43:44;5.50;;;3.30;;
67500;SDS011;54349;52.528;19.760;2023-04-01T15:52:11;5.50;;;3.70;;
67500;SDS011;54349;52.528;19.760;2023-04-01T16:03:55;5.20;;;3.30;;
67500;SDS011;54349;52.528;19.760;2023-04-01T16:18:01;5.80;;;3.10;;
67500;SDS011;54349;52.528;19.760;2023-04-01T16:23:56;4.70;;;3.20;;
67500;SDS011;54349;52.528;19.760;2023-04-01T16:31:51;4.90;;;3.40;;
67500;SDS011;54349;52.528;19.760;2023-04-01T16:34:29;5.90;;;3.60;;
67500;SDS011;54349;52.528;19.760;2023-04-01T16:37:11;5.20;;;3.30;;
67500;SDS011;54349;52.528;19.760;2023-04-01T16:40:10;5.00;;;3.30;;
67500;SDS011;54349;52.528;19.760;2023-04-01T16:42:53;5.00;;;3.30;;
67500;SDS011;54349;52.528;19.760;2023-04-01T16:46:40;5.70;;;3.80;;
67500;SDS011;54349;52.528;19.760;2023-04-01T16:57:26;5.70;;;3.60;;
67500;SDS011;54349;52.528;19.760;2023-04-01T17:02:57;6.00;;;4.00;;
67500;SDS011;54349;52.528;19.760;2023-04-01T17:14:51;7.60;;;4.20;;
67500;SDS011;54349;52.528;19.760;2023-04-01T17:21:00;5.90;;;3.70;;
67500;SDS011;54349;52.528;19.760;2023-04-01T17:23:53;6.20;;;3.70;;
67500;SDS011;54349;52.528;19.760;2023-04-01T17:26:50;5.50;;;3.60;;
67500;SDS011;54349;52.528;19.760;2023-04-01T17:41:46;10.70;;;5.30;;
67500;SDS011;54349;52.528;19.760;2023-04-01T17:44:45;9.90;;;5.20;;
67500;SDS011;54349;52.528;19.760;2023-04-01T17:50:24;9.20;;;5.20;;
67500;SDS011;54349;52.528;19.760;2023-04-01T17:59:39;10.80;;;5.70;;
67500;SDS011;54349;52.528;19.760;2023-04-01T18:08:35;9.50;;;4.90;;
67500;SDS011;54349;52.528;19.760;2023-04-01T18:20:44;8.80;;;4.50;;
67500;SDS011;54349;52.528;19.760;2023-04-01T18:26:33;7.90;;;4.40;;
67500;SDS011;54349;52.528;19.760;2023-04-01T18:32:12;8.70;;;4.70;;
67500;SDS011;54349;52.528;19.760;2023-04-01T18:40:36;8.80;;;5.50;;
67500;SDS011;54349;52.528;19.760;2023-04-01T18:49:29;10.50;;;6.20;;
67500;SDS011;54349;52.528;19.760;2023-04-01T18:57:49;10.30;;;5.80;;
67500;SDS011;54349;52.528;19.760;2023-04-01T19:00:59;10.20;;;5.60;;
67500;SDS011;54349;52.528;19.760;2023-04-01T19:04:24;9.20;;;5.50;;
67500;SDS011;54349;52.528;19.760;2023-04-01T19:07:40;10.10;;;5.50;;
67500;SDS011;54349;52.528;19.760;2023-04-01T19:10:25;8.50;;;5.50;;
67500;SDS011;54349;52.528;19.760;2023-04-01T19:13:07;9.70;;;5.60;;
67500;SDS011;54349;52.528;19.760;2023-04-01T19:19:12;8.30;;;5.20;;
67500;SDS011;54349;52.528;19.760;2023-04-01T19:22:20;9.10;;;5.50;;
67500;SDS011;54349;52.528;19.760;2023-04-01T19:25:19;10.50;;;4.90;;
67500;SDS011;54349;52.528;19.760;2023-04-01T19:31:41;8.20;;;5.20;;
67500;SDS011;54349;52.528;19.760;2023-04-01T19:53:18;8.30;;;4.70;;
67500;SDS011;54349;52.528;19.760;2023-04-01T19:56:19;9.30;;;5.30;;
67500;SDS011;54349;52.528;19.760;2023-04-01T20:04:33;7.60;;;4.80;;
67500;SDS011;54349;52.528;19.760;2023-04-01T20:07:35;8.50;;;5.00;;
67500;SDS011;54349;52.528;19.760;2023-04-01T20:10:32;7.70;;;4.50;;
67500;SDS011;54349;52.528;19.760;2023-04-01T20:19:27;9.00;;;5.30;;
67500;SDS011;54349;52.528;19.760;2023-04-01T20:21:59;6.80;;;4.70;;
67500;SDS011;54349;52.528;19.760;2023-04-01T20:24:44;8.50;;;4.70;;
67500;SDS011;54349;52.528;19.760;2023-04-01T20:27:18;8.10;;;4.60;;
67500;SDS011;54349;52.528;19.760;2023-04-01T20:30:26;7.00;;;4.50;;
67500;SDS011;54349;52.528;19.760;2023-04-01T20:33:21;10.40;;;4.90;;
67500;SDS011;54349;52.528;19.760;2023-04-01T20:39:34;6.90;;;4.60;;
67500;SDS011;54349;52.528;19.760;2023-04-01T20:43:10;7.10;;;4.70;;
67500;SDS011;54349;52.528;19.760;2023-04-01T20:46:04;8.30;;;5.10;;
67500;SDS011;54349;52.528;19.760;2023-04-01T20:51:32;11.00;;;5.00;;
67500;SDS011;54349;52.528;19.760;2023-04-01T20:58:09;9.40;;;5.00;;
67500;SDS011;54349;52.528;19.760;2023-04-01T21:16:46;11.70;;;5.20;;
67500;SDS011;54349;52.528;19.760;2023-04-01T21:22:46;8.50;;;4.80;;
67500;SDS011;54349;52.528;19.760;2023-04-01T21:28:20;7.90;;;4.60;;
67500;SDS011;54349;52.528;19.760;2023-04-01T21:51:41;8.10;;;4.20;;
67500;SDS011;54349;52.528;19.760;2023-04-01T21:54:56;7.90;;;4.30;;
67500;SDS011;54349;52.528;19.760;2023-04-01T22:07:24;7.40;;;3.60;;
67500;SDS011;54349;52.528;19.760;2023-04-01T22:18:33;6.10;;;3.60;;
67500;SDS011;54349;52.528;19.760;2023-04-01T22:21:14;6.20;;;3.70;;
67500;SDS011;54349;52.528;19.760;2023-04-01T22:29:21;5.50;;;3.20;;
67500;SDS011;54349;52.528;19.760;2023-04-01T22:32:09;6.80;;;3.80;;
67500;SDS011;54349;52.528;19.760;2023-04-01T22:43:42;5.90;;;3.50;;
67500;SDS011;54349;52.528;19.760;2023-04-01T22:52:03;5.50;;;3.20;;
67500;SDS011;54349;52.528;19.760;2023-04-01T22:54:37;5.40;;;3.20;;
67500;SDS011;54349;52.528;19.760;2023-04-01T22:57:19;5.00;;;3.00;;
67500;SDS011;54349;52.528;19.760;2023-04-01T22:59:54;5.70;;;3.00;;
67500;SDS011;54349;52.528;19.760;2023-04-01T23:02:46;5.50;;;3.00;;
67500;SDS011;54349;52.528;19.760;2023-04-01T23:05:21;5.10;;;2.70;;
67500;SDS011;54349;52.528;19.760;2023-04-01T23:08:25;4.70;;;2.70;;
67500;SDS011;54349;52.528;19.760;2023-04-01T23:11:16;5.60;;;2.80;;
67500;SDS011;54349;52.528;19.760;2023-04-01T23:20:03;4.70;;;2.50;;
67500;SDS011;54349;52.528;19.760;2023-04-01T23:23:56;3.90;;;2.40;;
67500;SDS011;54349;52.528;19.760;2023-04-01T23:26:35;4.40;;;2.50;;
67500;SDS011;54349;52.528;19.760;2023-04-01T23:29:14;4.40;;;2.50;;
67500;SDS011;54349;52.528;19.760;2023-04-01T23:31:47;4.60;;;2.60;;
67500;SDS011;54349;52.528;19.760;2023-04-01T23:34:23;4.80;;;2.40;;
67500;SDS011;54349;52.528;19.760;2023-04-01T23:36:58;4.10;;;2.40;;
67500;SDS011;54349;52.528;19.760;2023-04-01T23:42:28;3.30;;;2.30;;
67500;SDS011;54349;52.528;19.760;2023-04-01T23:45:14;4.30;;;2.40;;
67500;SDS011;54349;52.528;19.760;2023-04-01T23:47:48;3.50;;;2.20;;
67500;SDS011;54349;52.528;19.760;2023-04-01T23:50:21;3.80;;;2.10;;
67500;SDS011;54349;52.528;19.760;2023-04-01T23:52:59;3.70;;;2.10;;
67500;SDS011;54349;52.528;19.760;2023-04-01T23:55:32;3.00;;;2.10;;
